Time;durP1;ratioP1;P1;durP2;ratioP2;P2;SDS_P1;SDS_P2;PMS_P1;PMS_P2;Temp;Humidity;BMP_temperature;BMP_pressure;BME280_temperature;BME280_humidity;BME280_pressure;Samples;Min_cycle;Max_cycle;Signal;HPM_P1;HPM_P2
2022/11/06 00:00:07;;;;;;;13.30;4.20;;;9.70;99.90;;;;;;4993077;28;20046;-38
2022/11/06 00:02:32;;;;;;;8.15;3.30;;;9.70;99.90;;;;;;4974793;28;20053;-40
2022/11/06 00:06:46;;;;;;;6.82;3.38;;;9.70;99.90;;;;;;4995092;28;20046;-38
2022/11/06 00:07:45;;;;;;;6.35;3.20;;;9.70;99.90;;;;;;4988824;28;20060;-39
2022/11/06 00:10:12;;;;;;;9.02;3.83;;;9.70;99.90;;;;;;4988761;28;20055;-38
2022/11/06 00:12:38;;;;;;;8.25;3.70;;;9.70;99.90;;;;;;4988208;28;20129;-39
2022/11/06 00:15:05;;;;;;;7.88;3.50;;;9.70;99.90;;;;;;4992451;28;20573;-38
2022/11/06 00:17:30;;;;;;;9.85;3.60;;;9.60;99.90;;;;;;4992003;28;20039;-38
2022/11/06 00:19:56;;;;;;;14.38;4.18;;;9.70;99.90;;;;;;4989364;28;20046;-38
2022/11/06 00:22:21;;;;;;;8.27;3.33;;;9.70;99.90;;;;;;4987649;28;20433;-38
2022/11/06 00:24:48;;;;;;;7.55;3.40;;;9.70;99.90;;;;;;4987341;28;20488;-39
2022/11/06 00:27:14;;;;;;;6.32;3.22;;;9.60;99.90;;;;;;4984548;28;20050;-38
2022/11/06 00:29:40;;;;;;;6.78;3.10;;;9.70;99.90;;;;;;4987792;28;20046;-39
2022/11/06 00:32:06;;;;;;;6.47;3.55;;;9.70;99.90;;;;;;4987903;28;20103;-38
2022/11/06 00:34:32;;;;;;;6.28;2.67;;;9.70;99.90;;;;;;4961126;28;20125;-38
2022/11/06 00:36:58;;;;;;;9.65;3.60;;;9.70;99.90;;;;;;4987821;28;20042;-38
2022/11/06 00:39:23;;;;;;;10.52;3.38;;;9.70;99.90;;;;;;4992012;28;20038;-43
2022/11/06 00:41:49;;;;;;;9.60;3.58;;;9.70;99.90;;;;;;4974152;28;20488;-42
2022/11/06 00:44:15;;;;;;;7.32;3.30;;;9.70;99.90;;;;;;4986597;28;20064;-44
2022/11/06 00:46:40;;;;;;;7.90;3.40;;;9.70;99.90;;;;;;4990263;28;20042;-42
2022/11/06 00:49:06;;;;;;;7.53;3.00;;;9.80;99.90;;;;;;4984928;28;20415;-43
2022/11/06 00:51:38;;;;;;;7.35;3.20;;;9.80;99.90;;;;;;4987621;28;20543;-45
2022/11/06 00:54:06;;;;;;;6.17;3.13;;;9.80;99.90;;;;;;4988589;28;20517;-43
2022/11/06 00:56:32;;;;;;;8.55;3.50;;;9.70;99.90;;;;;;4984878;28;20910;-51
2022/11/06 00:58:59;;;;;;;7.75;3.38;;;9.70;99.90;;;;;;4986355;28;20061;-43
2022/11/06 01:01:28;;;;;;;11.55;3.85;;;9.70;99.90;;;;;;4988916;28;20132;-43
2022/11/06 01:04:05;;;;;;;7.72;3.00;;;9.60;99.90;;;;;;4988794;28;20498;-42
2022/11/06 01:06:41;;;;;;;6.95;3.78;;;9.60;99.90;;;;;;4973751;28;20049;-42
2022/11/06 01:09:08;;;;;;;10.38;4.20;;;9.60;99.90;;;;;;4989533;28;20046;-41
2022/11/06 01:11:39;;;;;;;8.85;4.10;;;9.50;99.90;;;;;;4992041;28;20088;-41
2022/11/06 01:14:07;;;;;;;11.43;3.97;;;9.50;99.90;;;;;;4990399;28;20041;-42
2022/11/06 01:16:34;;;;;;;8.45;3.80;;;9.50;99.90;;;;;;4988902;28;20042;-42
2022/11/06 01:19:00;;;;;;;7.63;3.67;;;9.50;99.90;;;;;;4991232;28;20214;-42
2022/11/06 01:21:29;;;;;;;8.80;4.00;;;9.50;99.90;;;;;;4990215;28;20070;-43
2022/11/06 01:24:00;;;;;;;8.93;3.30;;;9.50;99.90;;;;;;4992451;28;20065;-43
2022/11/06 01:26:27;;;;;;;5.70;3.40;;;9.50;99.90;;;;;;4981063;28;20418;-46
2022/11/06 01:28:54;;;;;;;6.63;3.80;;;9.50;99.90;;;;;;4967882;28;20050;-41
2022/11/06 01:31:24;;;;;;;7.60;3.95;;;9.40;99.90;;;;;;4987683;28;20161;-41
2022/11/06 01:33:49;;;;;;;14.20;3.85;;;9.50;99.90;;;;;;4984093;28;20058;-39
2022/11/06 01:36:18;;;;;;;11.35;3.55;;;9.40;99.90;;;;;;4988129;28;20191;-41
2022/11/06 01:38:46;;;;;;;10.57;4.07;;;9.40;99.90;;;;;;4978862;28;20057;-43
2022/11/06 01:41:14;;;;;;;10.95;4.50;;;9.40;99.90;;;;;;4979520;28;20550;-43
2022/11/06 01:43:48;;;;;;;12.32;4.05;;;9.40;99.90;;;;;;4982413;28;20488;-41
2022/11/06 01:46:15;;;;;;;9.05;4.28;;;9.40;99.90;;;;;;4976361;28;20042;-43
2022/11/06 01:48:46;;;;;;;8.75;4.10;;;9.40;99.90;;;;;;4980235;28;20070;-43
2022/11/06 01:51:13;;;;;;;8.07;3.85;;;9.30;99.90;;;;;;4978334;28;20443;-41
2022/11/06 01:53:39;;;;;;;13.15;4.25;;;9.30;99.90;;;;;;4983912;28;20053;-44
2022/11/06 01:56:07;;;;;;;9.68;4.25;;;9.30;99.90;;;;;;4982769;28;20038;-42
2022/11/06 01:58:35;;;;;;;9.13;3.58;;;9.30;99.90;;;;;;4981228;28;20533;-41
2022/11/06 02:01:02;;;;;;;6.50;3.70;;;9.30;99.90;;;;;;4980946;28;20038;-42
2022/11/06 02:03:28;;;;;;;9.38;3.47;;;9.30;99.90;;;;;;4977320;28;20073;-44
2022/11/06 02:05:55;;;;;;;11.27;4.15;;;9.30;99.90;;;;;;4989055;28;20043;-39
2022/11/06 02:08:22;;;;;;;13.85;4.40;;;9.30;99.90;;;;;;4984369;28;20113;-39
2022/11/06 02:10:49;;;;;;;8.18;4.40;;;9.30;99.90;;;;;;4987891;28;20046;-39
2022/11/06 02:13:38;;;;;;;9.35;4.20;;;9.30;99.90;;;;;;4983854;28;20045;-39
2022/11/06 02:16:22;;;;;;;9.35;4.00;;;9.30;99.90;;;;;;4984774;28;20318;-39
2022/11/06 02:19:07;;;;;;;10.73;4.85;;;9.30;99.90;;;;;;4966838;28;20101;-39
2022/11/06 02:21:50;;;;;;;10.82;4.15;;;9.30;99.90;;;;;;4984711;28;20381;-39
2022/11/06 02:24:18;;;;;;;8.63;4.13;;;9.30;99.90;;;;;;4985335;28;20070;-39
2022/11/06 02:27:10;;;;;;;8.50;3.88;;;9.30;99.90;;;;;;4983029;28;20053;-39
2022/11/06 02:29:39;;;;;;;7.18;3.45;;;9.30;99.90;;;;;;4964314;28;20034;-39
2022/11/06 02:32:09;;;;;;;9.07;4.50;;;9.30;99.90;;;;;;4985968;28;20065;-39
2022/11/06 02:34:37;;;;;;;10.85;3.70;;;9.30;99.90;;;;;;4985108;28;20057;-39
2022/11/06 02:37:20;;;;;;;7.95;3.63;;;9.40;99.90;;;;;;4981846;28;20042;-38
2022/11/06 02:39:47;;;;;;;10.73;4.03;;;9.40;99.90;;;;;;4982815;28;20081;-42
2022/11/06 02:42:17;;;;;;;9.52;4.35;;;9.40;99.90;;;;;;4982120;28;20046;-42
2022/11/06 02:44:44;;;;;;;9.07;4.05;;;9.40;99.90;;;;;;4983728;28;20105;-40
2022/11/06 02:47:12;;;;;;;6.78;3.40;;;9.40;99.90;;;;;;4980604;28;20045;-40
2022/11/06 02:50:06;;;;;;;8.77;3.53;;;9.40;99.90;;;;;;4984026;28;20057;-44
2022/11/06 02:52:47;;;;;;;9.18;4.25;;;9.40;99.90;;;;;;4985489;28;20492;-39
2022/11/06 02:55:35;;;;;;;8.77;3.92;;;9.40;99.90;;;;;;4979884;28;20042;-38
2022/11/06 02:58:07;;;;;;;7.20;3.90;;;9.40;99.90;;;;;;4984553;28;21202;-38
2022/11/06 03:00:35;;;;;;;6.57;3.70;;;9.40;99.90;;;;;;4982735;28;20057;-37
2022/11/06 03:03:06;;;;;;;9.38;3.85;;;9.40;99.90;;;;;;4978942;28;20077;-38
2022/11/06 03:05:46;;;;;;;8.90;3.78;;;9.40;99.90;;;;;;4983718;28;20511;-37
2022/11/06 03:08:39;;;;;;;6.65;3.03;;;9.40;99.90;;;;;;4981929;28;20035;-38
2022/11/06 03:11:24;;;;;;;;;;;9.40;99.90;;;;;;4985651;28;20038;-37
2022/11/06 03:13:54;;;;;;;10.85;3.30;;;9.40;99.90;;;;;;4981461;28;20027;-38
2022/11/06 03:16:45;;;;;;;7.15;2.60;;;9.30;99.90;;;;;;4986139;28;20042;-38
2022/11/06 03:19:21;;;;;;;6.07;3.22;;;9.30;99.90;;;;;;4968909;28;20053;-38
2022/11/06 03:22:08;;;;;;;9.73;4.30;;;9.30;99.90;;;;;;4980237;28;20046;-39
2022/11/06 03:24:41;;;;;;;7.78;3.45;;;9.30;99.90;;;;;;4979116;28;20097;-38
2022/11/06 03:27:13;;;;;;;7.00;3.33;;;9.30;99.90;;;;;;4983872;28;20043;-38
2022/11/06 03:29:47;;;;;;;10.43;3.47;;;9.30;99.90;;;;;;4984984;28;20150;-47
2022/11/06 03:32:33;;;;;;;10.27;3.13;;;9.30;99.90;;;;;;4984011;28;20130;-44
2022/11/06 03:35:11;;;;;;;7.45;2.58;;;9.20;99.90;;;;;;4985120;28;20605;-40
2022/11/06 03:37:52;;;;;;;9.98;3.67;;;9.20;99.90;;;;;;4973653;28;20124;-38
2022/11/06 03:40:21;;;;;;;9.20;3.55;;;9.20;99.90;;;;;;4984937;28;20054;-38
2022/11/06 03:42:48;;;;;;;10.20;3.35;;;9.20;99.90;;;;;;4967266;28;20049;-46
2022/11/06 03:45:23;;;;;;;8.18;3.35;;;9.20;99.90;;;;;;4985184;28;20531;-38
2022/11/06 03:48:01;;;;;;;10.95;3.95;;;9.20;99.90;;;;;;4990341;28;20238;-37
2022/11/06 03:50:50;;;;;;;8.98;3.30;;;9.20;99.90;;;;;;4987643;28;20404;-38
2022/11/06 03:53:41;;;;;;;10.43;3.50;;;9.20;99.90;;;;;;4983189;28;20042;-39
2022/11/06 03:56:14;;;;;;;9.38;2.85;;;9.20;99.90;;;;;;4985953;28;20050;-38
2022/11/06 03:58:44;;;;;;;8.43;3.40;;;9.20;99.90;;;;;;4987360;28;20066;-38
2022/11/06 04:01:12;;;;;;;8.80;3.45;;;9.20;99.90;;;;;;4987220;28;20057;-43
2022/11/06 04:03:52;;;;;;;6.45;3.20;;;9.20;99.90;;;;;;4988975;28;20447;-38
2022/11/06 04:06:53;;;;;;;11.15;3.90;;;9.10;99.90;;;;;;4990526;28;20038;-38
2022/11/06 04:14:56;;;;;;;9.07;3.40;;;9.10;99.90;;;;;;4986400;28;20501;-38
2022/11/06 04:17:25;;;;;;;6.35;3.75;;;9.10;99.90;;;;;;4987203;28;20042;-38
2022/11/06 04:19:59;;;;;;;7.93;3.00;;;9.10;99.90;;;;;;4990335;28;20042;-39
2022/11/06 04:22:41;;;;;;;8.70;3.25;;;9.10;99.90;;;;;;4980705;28;20146;-38
2022/11/06 04:29:19;;;;;;;5.75;2.50;;;9.10;99.90;;;;;;4929132;29;20056;-39
2022/11/06 04:31:57;;;;;;;9.23;2.88;;;9.10;99.90;;;;;;4987819;28;20046;-38
2022/11/06 04:34:44;;;;;;;7.53;2.50;;;9.10;99.90;;;;;;4989217;28;20047;-39
2022/11/06 04:37:21;;;;;;;7.95;2.95;;;9.10;99.90;;;;;;4985039;28;20657;-39
2022/11/06 04:39:50;;;;;;;7.93;3.30;;;9.10;99.90;;;;;;4982998;28;20052;-40
2022/11/06 04:42:41;;;;;;;6.70;3.03;;;9.10;99.90;;;;;;4989506;28;20180;-38
2022/11/06 04:45:13;;;;;;;10.27;3.40;;;9.10;99.90;;;;;;4987343;28;20041;-39
2022/11/06 04:47:39;;;;;;;6.75;2.55;;;9.10;99.90;;;;;;4988036;28;20046;-39
2022/11/06 04:50:07;;;;;;;9.68;2.85;;;9.10;99.90;;;;;;4986396;28;20046;-39
2022/11/06 04:52:35;;;;;;;8.10;3.03;;;9.10;99.90;;;;;;4985557;28;20046;-39
2022/11/06 04:55:01;;;;;;;8.57;2.80;;;9.10;99.90;;;;;;4992818;28;20045;-39
2022/11/06 04:57:27;;;;;;;9.77;2.85;;;9.10;99.90;;;;;;4986270;28;20034;-39
2022/11/06 04:59:55;;;;;;;5.60;2.65;;;9.10;99.90;;;;;;4983822;28;20045;-39
2022/11/06 05:02:21;;;;;;;6.47;2.75;;;9.10;99.90;;;;;;4969661;28;20038;-41
2022/11/06 05:04:47;;;;;;;5.22;2.13;;;9.10;99.90;;;;;;4986566;28;20412;-43
2022/11/06 05:07:14;;;;;;;8.07;2.40;;;9.10;99.90;;;;;;4989733;28;20092;-52
2022/11/06 05:09:40;;;;;;;9.15;2.35;;;9.20;99.90;;;;;;4986239;28;20134;-39
2022/11/06 05:12:06;;;;;;;9.10;3.13;;;9.20;99.90;;;;;;4985694;28;20035;-41
2022/11/06 05:14:32;;;;;;;5.63;2.60;;;9.20;99.90;;;;;;4983535;28;20035;-39
2022/11/06 05:16:58;;;;;;;8.40;2.35;;;9.20;99.90;;;;;;4982025;28;20034;-41
2022/11/06 05:19:23;;;;;;;6.43;2.38;;;9.20;99.90;;;;;;4987093;28;20050;-40
2022/11/06 05:24:33;;;;;;;5.78;2.17;;;9.20;99.90;;;;;;4983252;28;20504;-41
2022/11/06 05:26:59;;;;;;;5.78;2.10;;;9.20;99.90;;;;;;4984746;28;20050;-39
2022/11/06 05:29:25;;;;;;;6.93;1.95;;;9.30;99.90;;;;;;4987702;28;20464;-42
2022/11/06 05:31:50;;;;;;;6.15;2.00;;;9.30;99.90;;;;;;4985497;28;20500;-41
2022/11/06 05:34:16;;;;;;;5.13;1.90;;;9.30;99.90;;;;;;4984254;28;20504;-39
2022/11/06 05:36:42;;;;;;;6.47;1.90;;;9.30;99.90;;;;;;4986239;28;20439;-43
2022/11/06 05:39:08;;;;;;;4.93;1.70;;;9.30;99.90;;;;;;4985160;28;20482;-41
2022/11/06 05:41:33;;;;;;;8.63;1.65;;;9.30;99.90;;;;;;4985899;28;20038;-41
2022/11/06 05:43:59;;;;;;;6.32;1.90;;;9.30;99.90;;;;;;4981718;28;20042;-40
2022/11/06 05:46:24;;;;;;;4.22;1.75;;;9.30;99.90;;;;;;4987490;28;20487;-42
2022/11/06 05:48:50;;;;;;;7.97;2.20;;;9.40;99.90;;;;;;4986003;28;20038;-42
2022/11/06 05:51:16;;;;;;;7.18;2.53;;;9.40;99.90;;;;;;4984255;28;20042;-40
2022/11/06 05:53:42;;;;;;;8.00;2.35;;;9.40;99.90;;;;;;4986243;28;20507;-42
2022/11/06 05:56:07;;;;;;;4.78;1.88;;;9.40;99.90;;;;;;4984389;28;20031;-41
2022/11/06 05:58:33;;;;;;;3.70;1.77;;;9.40;99.90;;;;;;4986431;28;20112;-41
2022/11/06 06:00:59;;;;;;;4.38;1.77;;;9.40;99.90;;;;;;4985170;28;20034;-42
2022/11/06 06:03:25;;;;;;;3.85;1.30;;;9.40;99.90;;;;;;4987522;28;20513;-40
2022/11/06 06:05:51;;;;;;;5.93;1.60;;;9.40;99.90;;;;;;4986785;28;20038;-40
2022/11/06 06:08:17;;;;;;;4.35;2.17;;;9.40;99.90;;;;;;4984340;28;20125;-38
2022/11/06 06:10:45;;;;;;;9.75;2.88;;;9.40;99.90;;;;;;4983766;28;20054;-41
2022/11/06 06:13:11;;;;;;;4.82;1.75;;;9.50;99.90;;;;;;4967276;28;20056;-42
2022/11/06 06:15:38;;;;;;;3.28;1.20;;;9.50;99.90;;;;;;4986735;28;20042;-42
2022/11/06 06:18:05;;;;;;;6.38;1.83;;;9.50;99.90;;;;;;4986156;28;20046;-42
2022/11/06 06:20:31;;;;;;;6.30;1.63;;;9.50;99.90;;;;;;4985317;28;20400;-41
2022/11/06 06:22:57;;;;;;;6.22;2.03;;;9.50;99.90;;;;;;4985241;28;20038;-44
2022/11/06 06:25:24;;;;;;;4.82;1.73;;;9.50;99.90;;;;;;4987922;28;20034;-43
2022/11/06 06:27:51;;;;;;;4.88;1.63;;;9.50;99.90;;;;;;4984301;28;20053;-42
2022/11/06 06:30:17;;;;;;;3.88;1.45;;;9.50;99.90;;;;;;4985075;28;20042;-40
2022/11/06 06:32:43;;;;;;;6.72;1.90;;;9.50;99.90;;;;;;4983899;28;20042;-43
2022/11/06 06:35:09;;;;;;;4.22;1.63;;;9.50;99.90;;;;;;4987061;28;20046;-44
2022/11/06 06:37:35;;;;;;;5.15;1.45;;;9.50;99.90;;;;;;4983642;28;20074;-43
2022/11/06 06:40:01;;;;;;;6.20;1.02;;;9.50;99.90;;;;;;4987273;28;20053;-44
2022/11/06 06:42:29;;;;;;;4.50;1.52;;;9.50;99.90;;;;;;4991188;28;20038;-43
2022/11/06 06:44:55;;;;;;;9.85;1.63;;;9.60;99.90;;;;;;4985821;28;20555;-43
2022/11/06 06:47:21;;;;;;;5.07;1.50;;;9.60;99.90;;;;;;4981014;28;20137;-40
2022/11/06 06:49:47;;;;;;;3.70;0.90;;;9.60;99.90;;;;;;4981982;28;20100;-42
2022/11/06 06:52:13;;;;;;;6.75;1.80;;;9.60;99.90;;;;;;4982205;28;20047;-41
2022/11/06 06:54:38;;;;;;;4.78;1.30;;;9.60;99.90;;;;;;4988817;28;20451;-47
2022/11/06 06:57:07;;;;;;;4.10;1.15;;;9.60;99.90;;;;;;4986660;28;20035;-45
2022/11/06 06:59:33;;;;;;;8.60;1.58;;;9.60;99.90;;;;;;4983494;28;20049;-45
2022/11/06 07:01:58;;;;;;;4.60;1.35;;;9.60;99.90;;;;;;4978798;28;20038;-43
2022/11/06 07:04:24;;;;;;;5.50;1.60;;;9.60;99.90;;;;;;4986187;28;20043;-44
2022/11/06 07:06:53;;;;;;;5.43;1.35;;;9.60;99.90;;;;;;4987500;28;20182;-42
2022/11/06 07:09:20;;;;;;;9.82;1.83;;;9.70;99.90;;;;;;4979023;28;20101;-45
2022/11/06 07:11:46;;;;;;;3.38;1.23;;;9.70;99.90;;;;;;4986185;28;20056;-48
2022/11/06 07:14:12;;;;;;;6.70;1.20;;;9.70;99.90;;;;;;4986405;28;20030;-43
2022/11/06 07:16:37;;;;;;;6.75;2.03;;;9.70;99.90;;;;;;4983876;28;20550;-43
2022/11/06 07:19:03;;;;;;;7.53;1.35;;;9.70;99.90;;;;;;4986502;28;20081;-54
2022/11/06 07:21:29;;;;;;;4.72;1.60;;;9.70;99.90;;;;;;4983057;28;20041;-43
2022/11/06 07:23:54;;;;;;;7.13;1.20;;;9.70;99.90;;;;;;4984308;28;20046;-41
2022/11/06 07:26:20;;;;;;;4.28;1.40;;;9.70;99.90;;;;;;4991229;28;20059;-46
2022/11/06 07:28:45;;;;;;;6.45;1.65;;;9.70;99.90;;;;;;4990106;28;20494;-38
2022/11/06 07:31:11;;;;;;;7.20;1.45;;;9.70;99.90;;;;;;4991680;28;20046;-37
2022/11/06 07:33:37;;;;;;;6.38;1.85;;;9.70;99.90;;;;;;4992211;28;20076;-39
2022/11/06 07:36:09;;;;;;;6.43;1.35;;;9.70;99.90;;;;;;4990156;28;20042;-37
2022/11/06 07:38:36;;;;;;;6.35;1.58;;;9.70;99.90;;;;;;4987678;28;20046;-38
2022/11/06 07:41:11;;;;;;;7.63;1.40;;;9.80;99.90;;;;;;4973839;28;20049;-37
2022/11/06 07:43:37;;;;;;;5.90;1.23;;;9.80;99.90;;;;;;4989890;28;20081;-38
2022/11/06 07:46:06;;;;;;;5.22;1.38;;;9.80;99.90;;;;;;4987601;28;20121;-39
2022/11/06 07:48:33;;;;;;;4.47;1.30;;;9.80;99.90;;;;;;4991274;28;20042;-38
2022/11/06 07:51:02;;;;;;;5.65;1.38;;;9.80;99.90;;;;;;4990888;28;20527;-38
2022/11/06 07:53:28;;;;;;;4.20;1.60;;;9.90;99.90;;;;;;4991842;28;20580;-38
2022/11/06 07:55:55;;;;;;;4.43;1.30;;;9.90;99.90;;;;;;4991571;28;20120;-38
2022/11/06 07:58:22;;;;;;;5.90;1.45;;;9.90;99.90;;;;;;4987682;28;20038;-38
2022/11/06 08:00:55;;;;;;;6.03;1.30;;;9.90;99.90;;;;;;4986272;28;20042;-38
2022/11/06 08:03:22;;;;;;;4.63;1.35;;;9.90;99.90;;;;;;4987844;28;20073;-38
2022/11/06 08:05:48;;;;;;;5.82;1.90;;;9.90;99.90;;;;;;4988514;28;20057;-37
2022/11/06 08:08:13;;;;;;;5.80;1.20;;;10.00;99.90;;;;;;4989990;28;20550;-38
2022/11/06 08:10:39;;;;;;;3.70;0.95;;;9.90;99.90;;;;;;4989658;28;20092;-37
2022/11/06 08:13:06;;;;;;;4.95;1.65;;;10.00;99.90;;;;;;4973089;28;20137;-37
2022/11/06 08:15:32;;;;;;;8.35;1.52;;;10.00;99.90;;;;;;4983819;28;20085;-38
2022/11/06 08:17:59;;;;;;;4.28;1.33;;;10.00;99.90;;;;;;4983930;28;20097;-38
2022/11/06 08:20:25;;;;;;;4.78;1.17;;;10.00;99.90;;;;;;4987035;28;20042;-38
2022/11/06 08:22:50;;;;;;;6.10;1.25;;;10.10;99.90;;;;;;4987767;28;20046;-38
2022/11/06 08:25:16;;;;;;;3.55;1.80;;;10.10;99.90;;;;;;4988255;28;20534;-41
2022/11/06 08:27:42;;;;;;;4.38;1.88;;;10.10;99.90;;;;;;4990146;28;20101;-38
2022/11/06 08:30:08;;;;;;;5.63;1.80;;;10.10;99.90;;;;;;4983497;28;20046;-38
2022/11/06 08:32:34;;;;;;;5.60;1.40;;;10.10;99.90;;;;;;4982668;28;20050;-39
2022/11/06 08:34:59;;;;;;;7.72;1.33;;;10.10;99.90;;;;;;4985639;28;20058;-37
2022/11/06 08:37:25;;;;;;;4.40;1.52;;;10.20;99.90;;;;;;4985781;28;20042;-37
2022/11/06 08:39:51;;;;;;;3.05;1.02;;;10.20;99.90;;;;;;4987403;28;20042;-37
2022/11/06 08:42:17;;;;;;;6.85;1.50;;;10.20;99.90;;;;;;4985432;28;20056;-38
2022/11/06 08:44:42;;;;;;;3.33;1.20;;;10.20;99.90;;;;;;4990176;28;20100;-38
2022/11/06 08:47:08;;;;;;;4.72;1.17;;;10.20;99.90;;;;;;4988115;28;20115;-40
2022/11/06 08:49:34;;;;;;;4.55;1.10;;;10.30;99.90;;;;;;4987910;28;20507;-40
2022/11/06 08:51:59;;;;;;;5.50;1.60;;;10.30;99.90;;;;;;4985508;28;20046;-38
2022/11/06 08:54:25;;;;;;;3.13;1.10;;;10.30;99.90;;;;;;4993473;28;20069;-37
2022/11/06 08:56:51;;;;;;;15.90;2.75;;;10.40;99.90;;;;;;4979310;28;20101;-38
2022/11/06 08:59:17;;;;;;;2.97;1.30;;;10.50;99.90;;;;;;4976721;28;20038;-42
2022/11/06 09:01:42;;;;;;;6.60;1.30;;;10.60;99.90;;;;;;4981046;28;20049;-38
2022/11/06 09:04:08;;;;;;;3.65;1.15;;;10.60;99.90;;;;;;4985198;28;20042;-38
2022/11/06 09:06:34;;;;;;;5.50;1.00;;;10.70;99.90;;;;;;4987837;28;20045;-38
2022/11/06 09:08:59;;;;;;;4.82;1.00;;;10.80;99.90;;;;;;4988778;28;20034;-38
2022/11/06 09:11:25;;;;;;;4.88;1.40;;;10.80;99.90;;;;;;4982281;28;20452;-38
2022/11/06 09:13:51;;;;;;;4.35;1.27;;;10.90;99.90;;;;;;4984783;28;20034;-39
2022/11/06 09:16:16;;;;;;;3.72;1.08;;;11.00;99.90;;;;;;4985187;28;20040;-38
2022/11/06 09:18:42;;;;;;;4.93;1.52;;;11.00;99.90;;;;;;4987415;28;20042;-39
2022/11/06 09:21:08;;;;;;;4.25;1.13;;;11.00;99.90;;;;;;4986605;28;20046;-38
2022/11/06 09:23:34;;;;;;;7.82;1.40;;;11.00;99.90;;;;;;4982527;28;20727;-38
2022/11/06 09:26:00;;;;;;;3.80;1.00;;;11.00;99.90;;;;;;4985316;28;20054;-42
2022/11/06 09:28:25;;;;;;;4.05;1.30;;;11.00;99.90;;;;;;4983040;28;20045;-43
2022/11/06 09:30:51;;;;;;;7.25;1.20;;;11.00;99.90;;;;;;4986153;28;20038;-41
2022/11/06 09:33:17;;;;;;;5.50;1.63;;;11.00;99.90;;;;;;4991215;28;20835;-40
2022/11/06 09:35:42;;;;;;;4.95;0.95;;;11.10;99.90;;;;;;4982597;28;20042;-41
2022/11/06 09:38:14;;;;;;;4.68;1.30;;;11.10;99.90;;;;;;4987371;28;20496;-40
2022/11/06 09:40:51;;;;;;;2.13;0.93;;;11.10;99.90;;;;;;4978539;28;20499;-41
2022/11/06 09:43:45;;;;;;;2.88;1.15;;;11.20;99.90;;;;;;4984557;28;20069;-41
2022/11/06 09:46:27;;;;;;;4.07;1.05;;;11.20;99.90;;;;;;4973025;28;20042;-41
2022/11/06 09:49:03;;;;;;;4.95;1.08;;;11.20;99.90;;;;;;4980999;28;20045;-44
2022/11/06 09:51:40;;;;;;;3.65;0.80;;;11.30;99.90;;;;;;4968462;28;20043;-41
2022/11/06 09:54:23;;;;;;;4.10;0.70;;;11.30;99.90;;;;;;4990692;28;20049;-41
2022/11/06 09:56:59;;;;;;;3.75;0.88;;;11.30;99.90;;;;;;4986643;28;20043;-42
2022/11/06 09:59:25;;;;;;;3.30;1.23;;;11.30;99.90;;;;;;4963824;28;20492;-39
2022/11/06 10:01:57;;;;;;;3.78;1.60;;;11.30;99.90;;;;;;4975189;28;20526;-41
2022/11/06 10:04:42;;;;;;;6.87;1.23;;;11.30;99.90;;;;;;4980199;28;20049;-40
2022/11/06 10:07:26;;;;;;;3.97;1.30;;;11.30;99.90;;;;;;4979766;28;20038;-46
2022/11/06 10:09:51;;;;;;;2.95;0.90;;;11.30;99.90;;;;;;4984784;28;20046;-40
2022/11/06 10:12:37;;;;;;;5.80;1.10;;;11.40;99.90;;;;;;4979880;28;20092;-42
2022/11/06 10:15:27;;;;;;;2.63;0.90;;;11.40;99.90;;;;;;4988938;28;20045;-40
2022/11/06 10:18:11;;;;;;;5.72;1.27;;;11.50;99.90;;;;;;4986746;28;20532;-39
2022/11/06 10:21:07;;;;;;;3.80;0.85;;;11.50;99.90;;;;;;4985621;28;20400;-44
2022/11/06 10:23:58;;;;;;;1.63;0.73;;;11.60;99.90;;;;;;4981662;28;20046;-44
2022/11/06 10:26:35;;;;;;;5.72;1.15;;;11.70;99.90;;;;;;4984762;28;20101;-39
2022/11/06 10:29:22;;;;;;;4.07;0.90;;;11.70;99.90;;;;;;4984544;28;20042;-44
2022/11/06 10:32:14;;;;;;;5.22;2.08;;;11.70;99.90;;;;;;4987360;28;20199;-45
2022/11/06 10:34:59;;;;;;;4.25;0.82;;;11.70;99.90;;;;;;4982537;28;20140;-41
2022/11/06 10:37:34;;;;;;;7.30;0.70;;;11.70;99.90;;;;;;4988329;28;20054;-43
2022/11/06 10:40:04;;;;;;;4.75;1.50;;;11.80;99.90;;;;;;4984097;28;20050;-44
2022/11/06 10:42:40;;;;;;;5.47;0.95;;;11.80;99.90;;;;;;4983868;28;20034;-44
2022/11/06 10:45:13;;;;;;;3.88;1.25;;;11.80;99.90;;;;;;4984303;28;20042;-43
2022/11/06 10:47:45;;;;;;;2.22;1.13;;;11.90;99.90;;;;;;4970254;28;20057;-40
2022/11/06 10:50:14;;;;;;;2.55;0.75;;;11.90;99.90;;;;;;4982732;28;20080;-43
2022/11/06 10:52:59;;;;;;;5.78;0.90;;;11.90;99.90;;;;;;4985613;28;20053;-39
2022/11/06 10:56:01;;;;;;;5.55;0.82;;;11.90;99.90;;;;;;4982044;28;20133;-41
2022/11/06 10:58:31;;;;;;;4.70;1.00;;;11.90;99.90;;;;;;4988424;28;20117;-42
2022/11/06 11:01:00;;;;;;;5.55;0.95;;;11.90;99.90;;;;;;4990442;28;20046;-42
2022/11/06 11:03:26;;;;;;;3.08;0.88;;;11.90;99.90;;;;;;4990901;28;20415;-44
2022/11/06 11:05:52;;;;;;;4.03;0.70;;;11.80;99.90;;;;;;4987578;28;20042;-61
2022/11/06 11:08:30;;;;;;;4.57;0.90;;;11.90;99.90;;;;;;4987846;28;20525;-42
2022/11/06 11:11:14;;;;;;;3.88;0.82;;;11.90;99.90;;;;;;4971124;28;20053;-43
2022/11/06 11:13:45;;;;;;;5.90;2.05;;;11.80;99.90;;;;;;4988520;28;20042;-41
2022/11/06 11:16:21;;;;;;;3.40;0.80;;;11.80;99.90;;;;;;4989495;28;20114;-42
2022/11/06 11:18:48;;;;;;;5.03;0.82;;;11.80;99.90;;;;;;4988530;28;20141;-39
2022/11/06 11:21:26;;;;;;;3.47;0.88;;;11.80;99.90;;;;;;4991508;28;20065;-43
2022/11/06 11:24:13;;;;;;;4.95;0.75;;;11.90;99.90;;;;;;4990459;28;20089;-42
2022/11/06 11:26:45;;;;;;;2.80;0.68;;;11.80;99.90;;;;;;4995404;28;20472;-42
2022/11/06 11:29:20;;;;;;;2.60;0.90;;;11.80;99.90;;;;;;4992317;28;20038;-41
2022/11/06 11:31:51;;;;;;;4.47;0.90;;;11.80;99.90;;;;;;4985216;28;21752;-42
2022/11/06 11:34:23;;;;;;;2.25;0.70;;;11.70;99.90;;;;;;4991824;28;20157;-40
2022/11/06 11:37:01;;;;;;;4.22;1.30;;;11.80;99.90;;;;;;4993759;28;20404;-42
2022/11/06 11:39:30;;;;;;;3.75;0.85;;;11.80;99.90;;;;;;4990950;28;20050;-42
2022/11/06 11:42:16;;;;;;;4.80;1.40;;;11.80;99.90;;;;;;4991325;28;20034;-40
2022/11/06 11:44:41;;;;;;;6.82;0.93;;;11.80;99.90;;;;;;4985851;28;20049;-45
2022/11/06 11:47:21;;;;;;;3.65;1.00;;;11.90;99.90;;;;;;4991692;28;20034;-42
2022/11/06 11:49:47;;;;;;;2.33;0.90;;;11.90;99.90;;;;;;4991954;28;20047;-40
2022/11/06 11:52:18;;;;;;;3.88;0.80;;;11.90;99.90;;;;;;4991886;28;20042;-43
2022/11/06 11:54:49;;;;;;;3.38;0.57;;;12.00;99.90;;;;;;4995091;28;20049;-42
2022/11/06 11:57:24;;;;;;;5.00;1.40;;;12.00;99.90;;;;;;4990326;28;20053;-41
2022/11/06 12:00:00;;;;;;;3.33;0.70;;;12.00;99.90;;;;;;4988074;28;20042;-40
2022/11/06 12:02:28;;;;;;;2.28;1.20;;;12.00;99.90;;;;;;4991157;28;20050;-42
2022/11/06 12:05:01;;;;;;;3.60;0.75;;;12.00;99.90;;;;;;4990271;28;20045;-43
2022/11/06 12:07:36;;;;;;;5.63;0.65;;;12.00;99.90;;;;;;4992707;28;20500;-40
2022/11/06 12:10:17;;;;;;;2.85;0.80;;;12.00;99.90;;;;;;4983441;28;20050;-42
2022/11/06 12:12:50;;;;;;;3.53;0.57;;;12.10;99.90;;;;;;4986098;28;20407;-42
2022/11/06 12:15:25;;;;;;;2.83;1.00;;;12.10;99.90;;;;;;4989410;28;20030;-42
2022/11/06 12:17:59;;;;;;;2.53;0.50;;;12.20;99.90;;;;;;4990818;28;20046;-43
2022/11/06 12:20:59;;;;;;;5.57;0.90;;;12.20;99.90;;;;;;4985897;28;20042;-39
2022/11/06 12:23:33;;;;;;;3.58;1.20;;;12.20;99.90;;;;;;4967417;28;21354;-41
2022/11/06 12:26:07;;;;;;;2.22;0.70;;;12.10;99.90;;;;;;4982595;28;20049;-41
2022/11/06 12:28:36;;;;;;;4.97;0.60;;;12.10;99.90;;;;;;4976874;28;20092;-39
2022/11/06 12:31:24;;;;;;;6.22;0.73;;;12.10;99.90;;;;;;4980232;28;20050;-42
2022/11/06 12:33:54;;;;;;;2.92;0.60;;;12.20;99.90;;;;;;4978618;28;20527;-41
2022/11/06 12:36:25;;;;;;;2.35;0.65;;;12.20;99.90;;;;;;4987903;28;20042;-42
2022/11/06 12:38:58;;;;;;;1.27;0.45;;;12.10;99.90;;;;;;4982660;28;20043;-42
2022/11/06 12:41:36;;;;;;;4.30;1.08;;;12.10;99.90;;;;;;4985478;28;20368;-41
2022/11/06 12:44:02;;;;;;;5.43;0.73;;;12.00;99.90;;;;;;4981888;28;20046;-42
2022/11/06 12:46:52;;;;;;;4.57;1.00;;;12.10;99.90;;;;;;4988330;28;20535;-42
2022/11/06 12:49:55;;;;;;;5.22;0.90;;;12.10;99.90;;;;;;4986878;28;20122;-42
2022/11/06 12:52:41;;;;;;;;;;;12.00;99.90;;;;;;4983302;28;20038;-43
2022/11/06 12:55:29;;;;;;;2.65;0.73;;;12.10;99.90;;;;;;4981475;28;19987;-40
2022/11/06 12:57:56;;;;;;;2.58;0.75;;;12.10;99.90;;;;;;4977359;28;20610;-42
2022/11/06 13:00:25;;;;;;;4.72;1.58;;;12.00;99.90;;;;;;4987343;28;20562;-43
2022/11/06 13:03:06;;;;;;;2.67;0.60;;;12.10;99.90;;;;;;4986202;28;20093;-42
2022/11/06 13:05:57;;;;;;;4.25;0.63;;;12.00;99.90;;;;;;4988807;28;20085;-41
2022/11/06 13:08:44;;;;;;;4.10;0.80;;;12.10;99.90;;;;;;4986043;28;20042;-42
2022/11/06 13:11:25;;;;;;;4.45;0.73;;;12.10;99.90;;;;;;4988738;28;20126;-43
2022/11/06 13:14:00;;;;;;;1.60;0.60;;;12.10;99.90;;;;;;4971410;28;20133;-40
2022/11/06 13:16:28;;;;;;;1.77;0.43;;;12.10;99.90;;;;;;4988024;28;20061;-42
2022/11/06 13:19:16;;;;;;;5.20;1.00;;;12.10;99.90;;;;;;4985482;28;20035;-41
2022/11/06 13:21:51;;;;;;;10.98;0.93;;;12.10;99.90;;;;;;4973310;28;20045;-44
2022/11/06 13:24:38;;;;;;;3.30;0.50;;;12.10;99.90;;;;;;4973107;28;20042;-41
2022/11/06 13:27:14;;;;;;;4.43;0.77;;;12.10;99.90;;;;;;4964315;28;20065;-41